createdAt,value
2019-03-10T00:02:01.808Z,99987.02
2019-03-10T00:04:33.749Z,99988.05
2019-03-10T00:07:04.551Z,99989.59
2019-03-10T00:09:36.782Z,99986.59
2019-03-10T00:12:07.518Z,99986.59
2019-03-10T00:14:39.270Z,99990.52
2019-03-10T00:17:11.598Z,99988.84
2019-03-10T00:19:43.757Z,99994.69
2019-03-10T00:22:15.529Z,99994.69
2019-03-10T00:24:47.348Z,100001.48
2019-03-10T00:27:19.274Z,100008.65
2019-03-10T00:29:50.884Z,100006.10
2019-03-10T00:32:22.687Z,100016.14
2019-03-10T00:34:53.629Z,100025.84
2019-03-10T00:37:25.818Z,100027.06
2019-03-10T00:41:09.766Z,100027.06
2019-03-10T00:44:54.679Z,100021.05
2019-03-10T00:48:46.709Z,100024.98
2019-03-10T00:52:17.040Z,100019.59
2019-03-10T00:54:48.794Z,100001.42
2019-03-10T00:57:20.381Z,100004.83
2019-03-10T00:59:52.337Z,100011.45
2019-03-10T01:02:24.362Z,100003.23
2019-03-10T01:04:56.103Z,100007.98
2019-03-10T01:07:27.778Z,100005.23
2019-03-10T01:09:58.610Z,100000.64
2019-03-10T01:12:30.355Z,99995.58
2019-03-10T01:15:02.321Z,99995.58
2019-03-10T01:17:34.346Z,99991.51
2019-03-10T01:20:06.069Z,99988.27
2019-03-10T01:22:37.903Z,99990.67
2019-03-10T01:25:10.774Z,99985.58
2019-03-10T01:27:41.459Z,99980.95
2019-03-10T01:30:18.798Z,99983.88
2019-03-10T01:34:00.282Z,99983.98
2019-03-10T01:36:29.283Z,99985.70
2019-03-10T01:39:00.847Z,99977.92
2019-03-10T01:41:32.637Z,99974.02
2019-03-10T01:44:03.885Z,99969.91
2019-03-10T01:46:35.365Z,99964.48
2019-03-10T01:49:07.316Z,99955.34
2019-03-10T01:51:39.129Z,99958.38
2019-03-10T01:54:10.810Z,99958.23
2019-03-10T01:56:42.783Z,99944.97
2019-03-10T01:59:13.669Z,99942.08
2019-03-10T02:01:45.438Z,99930.89
2019-03-10T02:04:17.314Z,99930.89
2019-03-10T02:06:49.068Z,99933.22
2019-03-10T02:09:20.854Z,99936.44
2019-03-10T02:11:52.408Z,99927.79
2019-03-10T02:14:25.315Z,99929.53
2019-03-10T02:16:56.843Z,99933.60
2019-03-10T02:19:28.400Z,99936.32
2019-03-10T02:22:00.067Z,99937.33
2019-03-10T02:24:31.760Z,99931.20
2019-03-10T02:27:02.761Z,99930.37
2019-03-10T02:29:33.540Z,99923.44
2019-03-10T02:32:05.322Z,99921.38
2019-03-10T02:34:37.090Z,99918.59
2019-03-10T02:37:09.332Z,99912.64
2019-03-10T02:39:40.896Z,99906.68
2019-03-10T02:42:12.774Z,99901.91
2019-03-10T02:44:43.463Z,99891.00
2019-03-10T02:47:15.379Z,99885.08
2019-03-10T02:49:47.085Z,99872.85
2019-03-10T02:52:19.414Z,99873.72
2019-03-10T02:54:51.076Z,99871.00
2019-03-10T02:57:22.762Z,99868.32
2019-03-10T02:59:54.415Z,99866.44
2019-03-10T03:02:26.057Z,99867.80
2019-03-10T03:04:57.762Z,99860.34
2019-03-10T03:07:28.490Z,99854.88
2019-03-10T03:10:00.486Z,99853.97
2019-03-10T03:12:32.321Z,99843.83
2019-03-10T03:15:04.347Z,99846.58
2019-03-10T03:17:36.768Z,99841.81
2019-03-10T03:20:07.787Z,99839.93
2019-03-10T03:22:39.567Z,99833.13
2019-03-10T03:25:11.761Z,99835.05
2019-03-10T03:27:43.336Z,99833.55
2019-03-10T03:30:17.016Z,99827.63
2019-03-10T03:32:48.760Z,99830.14
2019-03-10T03:35:55.295Z,99827.04
2019-03-10T03:38:40.310Z,99828.74
2019-03-10T03:41:16.817Z,99821.67
2019-03-10T03:43:48.772Z,99817.46
2019-03-10T03:46:19.491Z,99813.70
2019-03-10T03:48:51.337Z,99826.45
2019-03-10T03:51:23.303Z,99828.61
2019-03-10T03:53:54.866Z,99818.88
2019-03-10T03:56:26.811Z,99807.62
2019-03-10T03:58:58.577Z,99807.14
2019-03-10T04:01:33.273Z,99800.14
2019-03-10T04:04:04.851Z,99795.61
2019-03-10T04:06:36.735Z,99791.84
2019-03-10T04:09:10.372Z,99786.14
2019-03-10T04:11:42.081Z,99777.95
2019-03-10T04:14:13.752Z,99782.41
2019-03-10T04:16:45.767Z,99776.98
2019-03-10T04:19:17.304Z,99771.33
2019-03-10T04:21:49.071Z,99772.17
2019-03-10T04:24:20.798Z,99771.33
2019-03-10T04:26:52.658Z,99773.78
2019-03-10T04:29:24.355Z,99767.86
2019-03-10T04:31:56.924Z,99767.86
2019-03-10T04:34:29.439Z,99763.30
2019-03-10T04:37:02.377Z,99757.41
2019-03-10T04:39:35.074Z,99757.32
2019-03-10T04:42:08.050Z,99745.05
2019-03-10T04:44:40.563Z,99741.16
2019-03-10T04:47:12.880Z,99734.66
2019-03-10T04:49:45.503Z,99734.66
2019-03-10T04:52:18.042Z,99749.52
2019-03-10T04:55:05.362Z,99743.95
2019-03-10T04:57:41.011Z,99746.66
2019-03-10T05:00:13.317Z,99742.94
2019-03-10T05:02:45.889Z,99742.06
2019-03-10T05:05:18.042Z,99737.85
2019-03-10T05:07:50.614Z,99739.73
2019-03-10T05:10:25.071Z,99740.00
2019-03-10T05:12:57.660Z,99719.58
2019-03-10T05:15:30.077Z,99718.49
2019-03-10T05:18:02.394Z,99718.49
2019-03-10T05:20:34.875Z,99724.06
2019-03-10T05:23:46.064Z,99717.80
2019-03-10T05:26:19.912Z,99710.87
2019-03-10T05:28:53.015Z,99713.97
2019-03-10T05:31:25.437Z,99703.55
2019-03-10T05:33:58.006Z,99695.80
2019-03-10T05:36:30.444Z,99691.41
2019-03-10T05:39:03.002Z,99682.91
2019-03-10T05:41:35.429Z,99679.20
2019-03-10T05:44:08.009Z,99678.70
2019-03-10T05:46:40.326Z,99673.45
2019-03-10T05:49:13.034Z,99666.66
2019-03-10T05:51:45.363Z,99665.47
2019-03-10T05:54:17.879Z,99663.63
2019-03-10T05:56:50.357Z,99654.83
2019-03-10T05:59:22.996Z,99653.78
2019-03-10T06:01:56.370Z,99646.86
2019-03-10T06:04:29.106Z,99643.20
2019-03-10T06:07:01.844Z,99635.16
2019-03-10T06:09:36.077Z,99633.92
2019-03-10T06:12:08.442Z,99629.53
2019-03-10T06:14:40.902Z,99626.02
2019-03-10T06:17:13.322Z,99620.83
2019-03-10T06:19:46.016Z,99616.36
2019-03-10T06:22:18.650Z,99606.88
2019-03-10T06:24:50.859Z,99586.58
2019-03-10T06:27:23.895Z,99586.58
2019-03-10T06:29:56.100Z,99590.25
2019-03-10T06:32:29.520Z,99583.88
2019-03-10T06:35:01.929Z,99571.20
2019-03-10T06:37:34.409Z,99565.22
2019-03-10T06:40:07.012Z,99567.41
2019-03-10T06:42:39.695Z,99565.00
2019-03-10T06:45:11.031Z,99558.83
2019-03-10T06:47:43.857Z,99541.85
2019-03-10T06:50:16.279Z,99538.06
2019-03-10T06:52:48.900Z,99538.78
2019-03-10T06:55:21.430Z,99532.99
2019-03-10T06:57:54.093Z,99534.23
2019-03-10T07:00:26.445Z,99526.89
2019-03-10T07:02:59.088Z,99533.12
2019-03-10T07:05:32.107Z,99530.41
2019-03-10T07:08:05.007Z,99534.58
2019-03-10T07:10:37.090Z,99539.50
2019-03-10T07:13:09.937Z,99532.23
2019-03-10T07:15:42.542Z,99528.30
2019-03-10T07:18:15.366Z,99530.94
2019-03-10T07:20:48.104Z,99530.94
2019-03-10T07:23:21.082Z,99536.84
2019-03-10T07:26:12.344Z,99521.28
2019-03-10T07:29:09.611Z,99513.87
2019-03-10T07:31:56.126Z,99508.72
2019-03-10T07:34:50.637Z,99508.72
2019-03-10T07:37:43.644Z,99504.98
2019-03-10T07:40:39.381Z,99510.56
2019-03-10T07:43:18.570Z,99498.72
2019-03-10T07:46:00.574Z,99470.05
2019-03-10T07:48:54.089Z,99463.42
2019-03-10T07:51:51.334Z,99463.42
2019-03-10T07:54:57.913Z,99475.53
2019-03-10T07:57:55.105Z,99475.94
2019-03-10T08:00:45.471Z,99473.75
2019-03-10T08:03:45.679Z,99474.13
2019-03-10T08:06:42.278Z,99460.33
2019-03-10T08:09:39.311Z,99460.33
2019-03-10T08:12:49.349Z,99449.05
2019-03-10T08:15:42.901Z,99451.16
2019-03-10T08:18:25.375Z,99443.38
2019-03-10T08:21:17.672Z,99434.52
2019-03-10T08:23:58.701Z,99430.26
2019-03-10T08:26:49.786Z,99431.70
2019-03-10T08:29:49.870Z,99417.42
2019-03-10T08:32:46.167Z,99421.41
2019-03-10T08:35:26.868Z,99410.95
2019-03-10T08:38:16.722Z,99404.48
2019-03-10T08:41:03.510Z,99394.88
2019-03-10T08:43:49.800Z,99387.33
2019-03-10T08:46:44.321Z,99385.94
2019-03-10T08:49:31.346Z,99381.96
2019-03-10T08:52:13.066Z,99377.66
2019-03-10T08:55:07.110Z,99369.53
2019-03-10T08:58:02.558Z,99363.98
2019-03-10T09:00:49.092Z,99352.11
2019-03-10T09:03:29.025Z,99352.11
2019-03-10T09:06:07.997Z,99361.84
2019-03-10T09:08:56.412Z,99357.55
2019-03-10T09:11:46.794Z,99351.45
2019-03-10T09:14:47.320Z,99349.88
2019-03-10T09:17:47.627Z,99347.80
2019-03-10T09:20:29.829Z,99322.07
2019-03-10T09:23:20.628Z,99322.07
2019-03-10T09:26:12.487Z,99317.65
2019-03-10T09:29:10.037Z,99317.65
2019-03-10T09:32:00.787Z,99306.33
2019-03-10T09:34:52.080Z,99303.27
2019-03-10T09:37:41.034Z,99285.60
2019-03-10T09:40:38.322Z,99282.47
2019-03-10T09:43:30.496Z,99281.48
2019-03-10T09:46:14.662Z,99279.22
2019-03-10T09:49:05.067Z,99245.33
2019-03-10T09:51:53.116Z,99245.33
2019-03-10T09:54:43.405Z,99240.94
2019-03-10T09:57:50.557Z,99234.15
2019-03-10T10:00:41.858Z,99217.59
2019-03-10T10:03:20.901Z,99217.59
2019-03-10T10:06:11.686Z,99206.11
2019-03-10T10:09:03.318Z,99191.36
2019-03-10T10:11:54.642Z,99191.36
2019-03-10T10:14:45.644Z,99177.77
2019-03-10T10:17:36.716Z,99180.60
2019-03-10T10:20:26.808Z,99177.99
2019-03-10T10:23:17.745Z,99164.48
2019-03-10T10:26:13.919Z,99158.86
2019-03-10T10:29:05.037Z,99147.05
2019-03-10T10:31:59.381Z,99135.13
2019-03-10T10:35:00.014Z,99129.16
2019-03-10T10:37:50.918Z,99121.75
2019-03-10T10:40:41.335Z,99109.30
2019-03-10T10:43:38.819Z,99094.55
2019-03-10T10:46:38.269Z,99087.88
2019-03-10T10:49:27.792Z,99079.20
2019-03-10T10:52:16.750Z,99077.00
2019-03-10T10:55:01.442Z,99070.42
2019-03-10T10:57:53.073Z,99061.97
2019-03-10T11:00:29.638Z,99053.83
2019-03-10T11:03:19.343Z,99029.37
2019-03-10T11:05:57.292Z,99029.37
2019-03-10T11:08:36.306Z,99024.23
2019-03-10T11:11:28.589Z,99019.13
2019-03-10T11:14:11.367Z,98990.20
2019-03-10T11:16:53.378Z,98990.20
2019-03-10T11:19:43.309Z,98992.27
2019-03-10T11:22:21.448Z,98975.01
2019-03-10T11:24:58.306Z,98963.95
2019-03-10T11:27:51.690Z,98952.22
2019-03-10T11:30:38.137Z,98940.12
2019-03-10T11:33:17.302Z,98912.22
2019-03-10T11:36:18.454Z,98901.15
2019-03-10T11:39:08.058Z,98903.23
2019-03-10T11:41:57.786Z,98886.80
2019-03-10T11:44:50.289Z,98879.41
2019-03-10T11:47:35.302Z,98879.18
2019-03-10T11:50:20.756Z,98877.62
2019-03-10T11:53:19.053Z,98880.44
2019-03-10T11:56:08.536Z,98865.83
2019-03-10T11:58:49.726Z,98858.31
2019-03-10T12:01:45.584Z,98863.74
2019-03-10T12:04:51.745Z,98854.57
2019-03-10T12:07:44.246Z,98854.57
2019-03-10T12:10:15.844Z,98828.34
2019-03-10T12:12:48.277Z,98814.55
2019-03-10T12:15:20.058Z,98807.42
2019-03-10T12:17:51.797Z,98804.80
2019-03-10T12:20:23.468Z,98785.69
2019-03-10T12:22:55.451Z,98760.36
2019-03-10T12:25:27.311Z,98748.67
2019-03-10T12:27:59.306Z,98764.25
2019-03-10T12:30:31.050Z,98765.02
2019-03-10T12:33:03.040Z,98761.03
2019-03-10T12:35:35.030Z,98748.55
2019-03-10T12:38:06.755Z,98744.48
2019-03-10T12:40:37.483Z,98748.55
2019-03-10T12:43:09.445Z,98744.59
2019-03-10T12:45:41.306Z,98727.73
2019-03-10T12:48:12.818Z,98712.91
2019-03-10T12:50:44.794Z,98719.41
2019-03-10T12:53:16.990Z,98721.83
2019-03-10T12:55:48.747Z,98726.11
2019-03-10T12:58:19.474Z,98712.13
2019-03-10T13:00:51.302Z,98705.73
2019-03-10T13:03:22.834Z,98703.31
2019-03-10T13:05:54.746Z,98705.94
2019-03-10T13:08:25.484Z,98694.92
2019-03-10T13:10:57.303Z,98694.58
2019-03-10T13:13:28.868Z,98682.11
2019-03-10T13:16:02.273Z,98688.91
2019-03-10T13:18:33.822Z,98677.53
2019-03-10T13:21:05.768Z,98669.05
2019-03-10T13:23:37.435Z,98658.63
2019-03-10T13:26:09.735Z,98641.59
2019-03-10T13:28:40.626Z,98626.66
2019-03-10T13:31:12.369Z,98614.38
2019-03-10T13:33:44.305Z,98614.38
2019-03-10T13:36:15.852Z,98604.39
2019-03-10T13:38:47.553Z,98613.10
2019-03-10T13:41:20.073Z,98597.34
2019-03-10T13:43:51.786Z,98597.34
2019-03-10T13:46:22.509Z,98606.11
2019-03-10T13:48:54.264Z,98604.46
2019-03-10T13:51:26.330Z,98587.69
2019-03-10T13:53:58.748Z,98575.19
2019-03-10T13:56:29.928Z,98571.92
2019-03-10T13:59:01.734Z,98560.53
2019-03-10T14:01:32.471Z,98555.44
2019-03-10T14:09:06.366Z,98548.59
2019-03-10T14:11:38.057Z,98541.42
2019-03-10T14:14:09.744Z,98540.81
2019-03-10T14:16:40.442Z,98539.86
2019-03-10T14:19:12.301Z,98547.73
2019-03-10T14:21:45.175Z,98545.92
2019-03-10T14:24:16.744Z,98534.17
2019-03-10T14:26:47.640Z,98538.11
2019-03-10T14:29:19.363Z,98530.81
2019-03-10T14:31:51.070Z,98530.81
2019-03-10T14:34:22.895Z,98536.08
2019-03-10T14:36:54.783Z,98535.18
2019-03-10T14:39:26.398Z,98534.07
2019-03-10T14:41:58.320Z,98526.44
2019-03-10T14:44:30.001Z,98530.45
2019-03-10T14:47:02.013Z,98526.59
2019-03-10T14:49:33.817Z,98514.20
2019-03-10T14:52:05.605Z,98504.31
2019-03-10T14:54:37.591Z,98509.97
2019-03-10T14:57:09.304Z,98490.09
2019-03-10T14:59:41.310Z,98490.09
2019-03-10T15:02:12.848Z,98492.45
2019-03-10T15:04:44.758Z,98493.53
2019-03-10T15:07:16.400Z,98486.58
2019-03-10T15:09:48.454Z,98477.06
2019-03-10T15:12:20.752Z,98468.17
2019-03-10T15:14:52.365Z,98473.29
2019-03-10T15:17:24.309Z,98466.73
2019-03-10T15:19:55.858Z,98462.27
2019-03-10T15:22:27.427Z,98468.30
2019-03-10T15:24:59.028Z,98467.61
2019-03-10T15:27:30.764Z,98448.64
2019-03-10T15:30:01.597Z,98455.73
2019-03-10T15:32:33.357Z,98467.93
2019-03-10T15:35:05.293Z,98467.93
2019-03-10T15:37:36.858Z,98424.02
2019-03-10T15:40:08.788Z,98444.30
2019-03-10T15:42:40.776Z,98436.28
2019-03-10T15:45:14.301Z,98427.06
2019-03-10T15:47:46.306Z,98421.40
2019-03-10T15:50:26.307Z,98418.17
2019-03-10T15:52:57.873Z,98433.81
2019-03-10T15:55:29.773Z,98451.98
2019-03-10T15:58:00.504Z,98442.78
2019-03-10T16:00:32.416Z,98454.40
2019-03-10T16:03:04.350Z,98442.78
2019-03-10T16:05:36.259Z,98452.88
2019-03-10T16:08:07.878Z,98449.48
2019-03-10T16:10:39.764Z,98453.81
2019-03-10T16:13:11.442Z,98449.73
2019-03-10T16:15:43.066Z,98446.55
2019-03-10T16:18:14.749Z,98438.47
2019-03-10T16:20:46.457Z,98454.58
2019-03-10T16:23:18.309Z,98450.95
2019-03-10T16:25:50.308Z,98460.55
2019-03-10T16:28:21.992Z,98479.34
2019-03-10T16:30:53.785Z,98452.75
2019-03-10T16:33:25.772Z,98470.94
2019-03-10T16:35:56.456Z,98469.44
2019-03-10T16:38:28.309Z,98480.92
2019-03-10T16:40:59.757Z,98491.34
2019-03-10T16:43:31.774Z,98477.74
2019-03-10T16:46:03.597Z,98478.42
2019-03-10T16:48:35.408Z,98494.88
2019-03-10T16:51:07.057Z,98494.88
2019-03-10T16:53:38.791Z,98488.70
2019-03-10T16:56:09.439Z,98493.89
2019-03-10T16:58:41.262Z,98490.34
2019-03-10T17:01:12.838Z,98493.67
2019-03-10T17:03:44.394Z,98486.73
2019-03-10T17:06:16.047Z,98507.89
2019-03-10T17:08:47.842Z,98490.95
2019-03-10T17:11:19.365Z,98503.95
2019-03-10T17:13:51.737Z,98509.25
2019-03-10T17:16:22.460Z,98513.69
2019-03-10T17:18:54.430Z,98501.55
2019-03-10T17:21:26.023Z,98502.88
2019-03-10T17:23:58.302Z,98504.53
2019-03-10T17:26:29.897Z,98515.91
2019-03-10T17:29:01.728Z,98520.25
2019-03-10T17:31:33.541Z,98515.69
2019-03-10T17:34:05.303Z,98556.12
2019-03-10T17:36:36.877Z,98556.12
2019-03-10T17:39:09.615Z,98550.48
2019-03-10T17:41:41.362Z,98578.88
2019-03-10T17:44:13.323Z,98578.88
2019-03-10T17:46:45.033Z,98569.27
2019-03-10T17:49:16.744Z,98547.77
2019-03-10T17:51:47.487Z,98563.35
2019-03-10T17:54:19.297Z,98558.44
2019-03-10T17:56:50.966Z,98579.41
2019-03-10T17:59:22.774Z,98571.23
2019-03-10T18:01:53.477Z,98569.27
2019-03-10T18:04:25.297Z,98573.07
2019-03-10T18:06:56.825Z,98596.38
2019-03-10T18:09:28.546Z,98583.45
2019-03-10T18:12:00.338Z,98596.24
2019-03-10T18:14:32.058Z,98596.24
2019-03-10T18:17:03.753Z,98604.41
2019-03-10T18:19:35.631Z,98639.15
2019-03-10T18:22:07.766Z,98606.24
2019-03-10T18:24:38.464Z,98606.24
2019-03-10T18:27:10.193Z,98626.36
2019-03-10T18:29:42.449Z,98622.98
2019-03-10T18:32:14.418Z,98620.55
2019-03-10T18:34:46.316Z,98626.75
2019-03-10T18:37:18.288Z,98626.46
2019-03-10T18:39:50.056Z,98624.63
2019-03-10T18:42:22.286Z,98622.37
2019-03-10T18:44:54.136Z,98619.15
2019-03-10T18:47:25.835Z,98664.30
2019-03-10T18:49:57.790Z,98649.21
2019-03-10T18:52:29.361Z,98654.81
2019-03-10T18:55:01.838Z,98648.34
2019-03-10T18:57:34.003Z,98665.30
2019-03-10T19:00:06.397Z,98680.70
2019-03-10T19:02:38.560Z,98682.06
2019-03-10T19:05:11.017Z,98658.45
2019-03-10T19:07:42.737Z,98658.45
2019-03-10T19:10:13.499Z,98666.83
2019-03-10T19:12:45.299Z,98671.91
2019-03-10T19:15:18.792Z,98667.30
2019-03-10T19:17:51.013Z,98668.67
2019-03-10T19:20:22.838Z,98675.61
2019-03-10T19:22:54.603Z,98702.02
2019-03-10T19:25:25.493Z,98711.36
2019-03-10T19:27:57.333Z,98724.96
2019-03-10T19:30:28.855Z,98723.11
2019-03-10T19:33:00.739Z,98723.86
2019-03-10T19:35:31.514Z,98722.56
2019-03-10T19:38:04.614Z,98709.61
2019-03-10T19:40:36.418Z,98721.02
2019-03-10T19:43:07.825Z,98748.56
2019-03-10T19:45:42.357Z,98758.11
2019-03-10T19:48:14.606Z,98778.09
2019-03-10T19:50:46.857Z,98802.30
2019-03-10T19:53:18.765Z,98802.30
2019-03-10T19:55:50.400Z,98830.53
2019-03-10T19:58:22.623Z,98835.69
2019-03-10T20:00:54.517Z,98952.13
2019-03-10T20:03:26.353Z,98952.13
2019-03-10T20:05:58.431Z,98984.80
2019-03-10T20:08:30.298Z,99030.05
2019-03-10T20:11:01.864Z,99089.23
2019-03-10T20:13:33.713Z,99135.19
2019-03-10T20:16:04.452Z,99134.58
2019-03-10T20:18:36.292Z,99176.22
2019-03-10T20:21:07.904Z,99215.22
2019-03-10T20:23:39.729Z,99220.23
2019-03-10T20:26:10.530Z,99233.34
2019-03-10T20:28:42.395Z,99303.09
2019-03-10T20:31:14.297Z,99303.09
2019-03-10T20:33:47.856Z,99321.29
2019-03-10T20:36:19.782Z,99323.47
2019-03-10T20:38:51.383Z,99360.25
2019-03-10T20:41:23.308Z,99378.83
2019-03-10T20:43:54.804Z,99400.77
2019-03-10T20:46:26.514Z,99417.88
2019-03-10T20:48:58.690Z,99437.91
2019-03-10T20:51:29.642Z,99461.11
2019-03-10T20:54:01.734Z,99500.56
2019-03-10T20:56:32.846Z,99500.56
2019-03-10T20:59:04.788Z,99510.84
2019-03-10T21:01:36.653Z,99517.14
2019-03-10T21:04:08.470Z,99540.33
2019-03-10T21:06:41.681Z,99540.33
2019-03-10T21:09:13.458Z,99564.13
2019-03-10T21:11:45.439Z,99564.13
2019-03-10T21:14:17.066Z,99571.84
2019-03-10T21:16:49.312Z,99587.92
2019-03-10T21:19:21.405Z,99596.20
2019-03-10T21:21:53.389Z,99612.06
2019-03-10T21:24:25.781Z,99621.63
2019-03-10T21:26:56.941Z,99633.54
2019-03-10T21:29:28.786Z,99638.36
2019-03-10T21:31:59.479Z,99644.31
2019-03-10T21:34:31.412Z,99653.83
2019-03-10T21:37:03.800Z,99664.63
2019-03-10T21:39:35.553Z,99671.05
2019-03-10T21:42:07.345Z,99678.30
2019-03-10T21:44:39.066Z,99685.09
2019-03-10T21:47:10.794Z,99690.17
2019-03-10T21:49:45.313Z,99704.45
2019-03-10T21:52:19.024Z,99711.20
2019-03-10T21:54:50.348Z,99725.75
2019-03-10T21:57:22.799Z,99725.75
2019-03-10T21:59:54.361Z,99736.23
2019-03-10T22:02:26.065Z,99739.81
2019-03-10T22:04:58.081Z,99739.33
2019-03-10T22:07:30.312Z,99738.95
2019-03-10T22:10:02.378Z,99737.09
2019-03-10T22:12:34.314Z,99735.47
2019-03-10T22:17:51.016Z,99743.79
2019-03-10T22:20:23.926Z,99741.19
2019-03-10T22:22:56.414Z,99743.66
2019-03-10T22:25:29.067Z,99753.85
2019-03-10T22:28:02.029Z,99759.98
2019-03-10T22:30:36.041Z,99768.93
2019-03-10T22:33:08.803Z,99763.77
2019-03-10T22:35:41.369Z,99779.55
2019-03-10T22:38:15.430Z,99782.09
2019-03-10T22:40:47.923Z,99783.65
2019-03-10T22:43:20.062Z,99783.65
2019-03-10T22:45:52.368Z,99788.00
2019-03-10T22:48:24.945Z,99790.72
2019-03-10T22:50:57.291Z,99792.64
2019-03-10T22:53:30.154Z,99796.70
2019-03-10T22:56:03.129Z,99798.06
2019-03-10T22:58:36.065Z,99796.01
2019-03-10T23:01:08.498Z,99791.48
2019-03-10T23:03:40.896Z,99807.12
2019-03-10T23:06:13.075Z,99806.18
2019-03-10T23:08:46.067Z,99809.91
2019-03-10T23:11:18.871Z,99812.45
2019-03-10T23:13:51.089Z,99810.05
2019-03-10T23:16:23.922Z,99812.45
2019-03-10T23:23:28.032Z,99814.75
2019-03-10T23:26:00.341Z,99814.75
2019-03-10T23:28:33.352Z,99825.44
2019-03-10T23:31:06.082Z,99831.84
2019-03-10T23:33:39.298Z,99841.02
2019-03-10T23:36:12.345Z,99842.38
2019-03-10T23:38:45.039Z,99855.60
2019-03-10T23:41:17.335Z,99851.53
2019-03-10T23:43:50.107Z,99856.52
2019-03-10T23:46:23.131Z,99858.25
2019-03-10T23:48:56.429Z,99860.73
2019-03-10T23:51:29.504Z,99861.59
2019-03-10T23:54:02.068Z,99868.18
2019-03-10T23:56:34.128Z,99876.16
2019-03-10T23:59:06.426Z,99880.80
